Time;durP1;ratioP1;P1;durP2;ratioP2;P2;SDS_P1;SDS_P2;PMS_P1;PMS_P2;Temp;Humidity;BMP_temperature;BMP_pressure;BME280_temperature;BME280_humidity;BME280_pressure;Samples;Min_cycle;Max_cycle;Signal;HPM_P1;HPM_P2
2023/10/23 00:01:02;;;;;;;6.37;5.30;;;;;;;8.28;100.00;96145.03;5086191;27;104858;-76
2023/10/23 00:03:29;;;;;;;5.70;4.67;;;;;;;8.32;100.00;96140.84;5069961;27;102680;-76
2023/10/23 00:05:56;;;;;;;6.37;5.33;;;;;;;8.26;100.00;96139.16;5070374;27;101794;-76
2023/10/23 00:08:26;;;;;;;5.70;5.13;;;;;;;8.21;100.00;96131.13;5089096;27;103800;-76
2023/10/23 00:10:53;;;;;;;5.53;4.97;;;;;;;8.21;100.00;96128.47;5070324;27;101757;-76
2023/10/23 00:13:20;;;;;;;7.40;5.20;;;;;;;8.07;100.00;96129.84;5070517;27;102534;-76
2023/10/23 00:15:47;;;;;;;5.53;5.03;;;;;;;8.15;100.00;96126.78;5068292;27;105504;-76
2023/10/23 00:18:17;;;;;;;5.27;4.40;;;;;;;8.12;100.00;96130.72;5068838;27;102266;-76
2023/10/23 00:20:44;;;;;;;5.33;4.83;;;;;;;8.04;100.00;96136.41;5070089;27;102697;-76
2023/10/23 00:23:11;;;;;;;5.37;4.70;;;;;;;8.02;100.00;96143.78;5085564;27;105182;-75
2023/10/23 00:25:38;;;;;;;6.13;4.93;;;;;;;7.99;100.00;96136.34;5068962;27;101923;-75
2023/10/23 00:28:05;;;;;;;6.23;4.87;;;;;;;7.75;100.00;96139.34;5068943;27;104280;-75
2023/10/23 00:30:35;;;;;;;5.20;4.60;;;;;;;7.60;100.00;96128.50;5071468;27;101917;-75
2023/10/23 00:33:02;;;;;;;4.60;4.20;;;;;;;7.53;100.00;96127.84;5068842;27;105774;-75
2023/10/23 00:35:32;;;;;;;4.50;4.10;;;;;;;7.49;100.00;96137.28;5069485;27;103151;-75
2023/10/23 00:37:59;;;;;;;4.50;4.10;;;;;;;7.60;100.00;96149.66;5068826;27;102336;-75
2023/10/23 00:40:26;;;;;;;5.10;4.43;;;;;;;7.68;100.00;96155.38;5068847;27;104898;-75
2023/10/23 00:42:53;;;;;;;4.70;4.20;;;;;;;7.57;100.00;96150.13;5068394;27;105340;-75
2023/10/23 00:45:20;;;;;;;5.37;4.87;;;;;;;7.49;100.00;96145.22;5067747;27;102013;-75
2023/10/23 00:47:47;;;;;;;5.20;4.70;;;;;;;7.56;100.00;96146.69;5068688;27;104939;-75
2023/10/23 00:50:16;;;;;;;4.20;3.37;;;;;;;7.49;100.00;96150.50;5088600;27;105240;-75
2023/10/23 00:52:44;;;;;;;3.67;3.37;;;;;;;7.38;100.00;96138.94;5086094;27;105248;-76
2023/10/23 00:55:14;;;;;;;4.77;3.60;;;;;;;7.42;100.00;96148.00;5088598;27;105463;-76
2023/10/23 00:57:42;;;;;;;4.83;3.60;;;;;;;7.26;100.00;96143.47;5071915;27;101987;-76
2023/10/23 01:00:10;;;;;;;4.47;4.07;;;;;;;7.29;100.00;96150.94;5071748;27;103776;-76
2023/10/23 01:02:38;;;;;;;5.10;4.13;;;;;;;7.44;100.00;96153.06;5071145;27;105777;-76
2023/10/23 01:05:07;;;;;;;4.53;4.13;;;;;;;7.40;100.00;96147.44;5071921;27;101912;-76
2023/10/23 01:07:35;;;;;;;4.43;4.03;;;;;;;7.41;100.00;96140.31;5089017;27;105561;-76
2023/10/23 01:10:03;;;;;;;4.07;3.77;;;;;;;7.44;100.00;96139.84;5072431;27;102767;-76
2023/10/23 01:12:30;;;;;;;4.63;4.23;;;;;;;7.54;100.00;96140.03;5075081;27;102275;-76
2023/10/23 01:14:57;;;;;;;6.17;3.97;;;;;;;7.54;100.00;96140.03;5071138;27;104962;-77
2023/10/23 01:17:24;;;;;;;4.20;3.80;;;;;;;7.58;100.00;96134.00;5089025;27;101915;-77
2023/10/23 01:19:52;;;;;;;5.00;3.90;;;;;;;7.56;100.00;96137.94;5071663;27;104900;-76
2023/10/23 01:22:19;;;;;;;5.10;3.80;;;;;;;7.59;100.00;96140.13;5070892;27;104626;-77
2023/10/23 01:24:48;;;;;;;4.23;3.60;;;;;;;7.57;100.00;96140.34;5071522;27;102092;-77
2023/10/23 01:27:17;;;;;;;4.07;3.37;;;;;;;7.63;100.00;96141.25;5071266;27;105364;-77
2023/10/23 01:29:45;;;;;;;3.70;3.30;;;;;;;7.56;100.00;96145.88;5070822;27;105913;-77
2023/10/23 01:32:12;;;;;;;4.43;3.70;;;;;;;7.50;100.00;96144.19;5071404;27;101896;-77
2023/10/23 01:34:39;;;;;;;4.10;3.70;;;;;;;7.27;100.00;96145.09;5091294;27;104835;-77
2023/10/23 01:37:06;;;;;;;4.03;3.63;;;;;;;7.10;100.00;96146.06;5088714;27;101847;-77
2023/10/23 01:39:32;;;;;;;4.97;3.67;;;;;;;7.13;100.00;96145.56;5071294;27;105386;-77
2023/10/23 01:41:59;;;;;;;4.43;4.03;;;;;;;7.21;100.00;96145.22;5087835;27;105587;-77
2023/10/23 01:44:29;;;;;;;3.97;3.60;;;;;;;7.18;100.00;96141.19;5072660;27;101981;-76
2023/10/23 01:46:56;;;;;;;4.40;4.00;;;;;;;7.05;100.00;96145.94;5070451;27;103732;-76
2023/10/23 01:49:23;;;;;;;4.37;3.70;;;;;;;7.11;100.00;96159.06;5070479;27;105428;-75
2023/10/23 01:51:51;;;;;;;6.10;3.80;;;;;;;7.12;100.00;96163.28;5072432;27;101785;-75
2023/10/23 01:54:18;;;;;;;3.97;3.60;;;;;;;7.13;100.00;96161.44;5071038;27;105166;-74
2023/10/23 01:56:45;;;;;;;5.77;3.50;;;;;;;7.13;100.00;96169.38;5091018;27;105643;-74
2023/10/23 01:59:12;;;;;;;4.63;3.70;;;;;;;7.06;100.00;96182.75;5088369;27;104981;-74
2023/10/23 02:01:40;;;;;;;4.50;4.10;;;;;;;7.14;100.00;96177.06;5087407;27;104522;-74
2023/10/23 02:04:07;;;;;;;4.73;4.10;;;;;;;7.13;100.00;96177.31;5070819;27;101860;-74
2023/10/23 02:06:34;;;;;;;4.10;3.70;;;;;;;7.13;100.00;96161.44;5088221;27;105503;-74
2023/10/23 02:09:01;;;;;;;3.80;3.47;;;;;;;7.10;100.00;96167.22;5070394;27;105615;-74
2023/10/23 02:11:28;;;;;;;3.97;3.60;;;;;;;7.07;100.00;96165.03;5070626;27;101862;-74
2023/10/23 02:13:56;;;;;;;5.00;3.60;;;;;;;7.11;100.00;96172.28;5070911;27;105061;-74
2023/10/23 02:16:23;;;;;;;4.80;4.40;;;;;;;7.16;100.00;96175.03;5070283;27;105368;-74
2023/10/23 02:18:51;;;;;;;4.40;3.90;;;;;;;7.17;100.00;96166.03;5091128;27;101932;-74
2023/10/23 02:21:18;;;;;;;3.83;3.53;;;;;;;7.09;100.00;96153.19;5070091;27;105024;-74
2023/10/23 02:23:45;;;;;;;4.17;3.77;;;;;;;7.15;100.00;96164.66;5070625;27;101956;-74
2023/10/23 02:26:12;;;;;;;3.97;3.67;;;;;;;7.17;100.00;96165.22;5070587;27;105021;-74
2023/10/23 02:28:38;;;;;;;4.20;3.80;;;;;;;7.06;100.00;96160.78;5070158;27;105405;-74
2023/10/23 02:31:10;;;;;;;3.60;3.20;;;;;;;6.93;100.00;96156.53;5071974;27;101846;-77
2023/10/23 02:33:42;;;;;;;3.57;3.27;;;;;;;6.95;100.00;96153.69;5071611;27;103822;-77
2023/10/23 02:36:16;;;;;;;4.87;3.97;;;;;;;6.92;100.00;96156.81;5069715;27;105954;-77
2023/10/23 02:38:47;;;;;;;4.00;3.57;;;;;;;6.99;100.00;96157.47;5075356;27;101685;-77
2023/10/23 02:41:17;;;;;;;3.53;3.23;;;;;;;7.04;100.00;96157.56;5086830;27;106183;-77
2023/10/23 02:43:45;;;;;;;3.60;3.30;;;;;;;6.98;100.00;96155.88;5071667;27;102520;-76
2023/10/23 02:46:12;;;;;;;3.80;3.50;;;;;;;6.74;100.00;96159.56;5069634;27;105437;-76
2023/10/23 02:48:40;;;;;;;3.97;3.57;;;;;;;6.76;100.00;96160.94;5070982;27;103119;-76
2023/10/23 02:51:08;;;;;;;4.57;3.67;;;;;;;6.75;100.00;96169.09;5070066;27;102017;-76
2023/10/23 02:53:36;;;;;;;11.77;7.93;;;;;;;6.68;100.00;96166.59;5070165;27;105676;-76
2023/10/23 02:56:11;;;;;;;15.17;10.07;;;;;;;6.76;100.00;96166.22;5069323;27;104210;-76
2023/10/23 02:58:38;;;;;;;10.27;7.47;;;;;;;6.82;100.00;96165.28;5070406;27;101684;-75
2023/10/23 03:01:14;;;;;;;10.50;6.97;;;;;;;6.85;100.00;96164.03;5072908;27;105096;-75
2023/10/23 03:03:41;;;;;;;5.67;5.07;;;;;;;6.87;100.00;96159.34;5087186;27;101973;-74
2023/10/23 03:06:08;;;;;;;6.83;5.17;;;;;;;6.86;100.00;96158.53;5087118;27;105601;-73
2023/10/23 03:08:37;;;;;;;5.97;5.10;;;;;;;6.87;100.00;96154.84;5069092;27;104457;-73
2023/10/23 03:11:05;;;;;;;4.77;4.37;;;;;;;6.76;100.00;96157.50;5070042;27;101891;-73
2023/10/23 03:13:32;;;;;;;4.43;3.90;;;;;;;6.48;100.00;96165.31;5069872;27;105704;-74
2023/10/23 03:15:59;;;;;;;3.80;3.50;;;;;;;6.62;100.00;96166.69;5068619;27;105517;-74
2023/10/23 03:18:26;;;;;;;3.77;3.47;;;;;;;6.55;100.00;96161.53;5069995;27;101801;-74
2023/10/23 03:20:53;;;;;;;3.40;3.03;;;;;;;6.49;100.00;96157.16;5069732;27;105137;-73
2023/10/23 03:23:21;;;;;;;4.20;3.87;;;;;;;6.43;100.00;96157.31;5072496;27;105770;-73
2023/10/23 03:25:51;;;;;;;5.47;4.40;;;;;;;6.42;100.00;96156.50;5069712;27;105220;-73
2023/10/23 03:28:18;;;;;;;4.97;4.47;;;;;;;6.52;100.00;96155.91;5069067;27;105188;-74
2023/10/23 03:30:45;;;;;;;5.90;5.30;;;;;;;6.44;100.00;96151.00;5069605;27;101962;-74
2023/10/23 03:33:12;;;;;;;12.27;6.00;;;;;;;6.40;100.00;96152.47;5086949;27;105196;-74
2023/10/23 03:35:42;;;;;;;9.23;5.90;;;;;;;6.23;100.00;96146.28;5068979;27;105071;-74
2023/10/23 03:38:09;;;;;;;20.20;5.37;;;;;;;5.94;100.00;96157.72;5069558;27;101881;-74
2023/10/23 03:40:36;;;;;;;45.90;5.50;;;;;;;5.98;100.00;96169.41;5069476;27;105207;-73
2023/10/23 03:43:04;;;;;;;63.03;6.97;;;;;;;5.93;100.00;96180.66;5068690;27;104140;-75
2023/10/23 03:45:36;;;;;;;9.43;4.63;;;;;;;5.94;100.00;96181.47;5071751;27;101953;-75
2023/10/23 03:48:03;;;;;;;5.20;4.80;;;;;;;6.11;100.00;96177.13;5068804;27;105331;-74
2023/10/23 03:50:30;;;;;;;4.40;4.10;;;;;;;6.13;100.00;96183.00;5069441;27;101942;-74
2023/10/23 03:52:57;;;;;;;29.07;5.70;;;;;;;6.03;100.00;96190.66;5086365;27;105618;-74
2023/10/23 03:55:24;;;;;;;9.80;5.73;;;;;;;6.15;100.00;96202.03;5070169;27;103140;-75
2023/10/23 03:57:51;;;;;;;6.53;5.90;;;;;;;6.16;100.00;96199.16;5069200;27;101928;-75
2023/10/23 04:00:20;;;;;;;6.10;5.50;;;;;;;6.20;100.00;96189.78;5070586;27;102814;-74
2023/10/23 04:02:47;;;;;;;5.83;5.30;;;;;;;6.29;100.00;96187.59;5070067;27;102728;-74
2023/10/23 04:05:14;;;;;;;9.73;6.77;;;;;;;6.33;100.00;96189.53;5069559;27;101907;-74
2023/10/23 04:07:41;;;;;;;9.67;8.17;;;;;;;6.15;100.00;96202.84;5072063;27;105420;-74
2023/10/23 04:10:08;;;;;;;8.77;7.43;;;;;;;6.24;100.00;96193.56;5070645;27;101799;-74
2023/10/23 04:12:35;;;;;;;7.37;5.83;;;;;;;6.32;100.00;96189.78;5070621;27;103000;-74
2023/10/23 04:15:03;;;;;;;6.90;5.40;;;;;;;6.30;100.00;96182.09;5068381;27;105975;-75
2023/10/23 04:17:31;;;;;;;6.03;5.17;;;;;;;6.22;100.00;96182.41;5086195;27;101885;-75
2023/10/23 04:19:58;;;;;;;6.20;5.60;;;;;;;6.32;100.00;96181.88;5068948;27;105517;-75
2023/10/23 04:22:25;;;;;;;5.83;5.27;;;;;;;6.40;100.00;96173.59;5085587;27;104408;-76
2023/10/23 04:24:54;;;;;;;7.13;5.33;;;;;;;6.44;100.00;96174.75;5068785;27;101988;-76
2023/10/23 04:27:20;;;;;;;7.10;6.40;;;;;;;6.42;100.00;96171.53;5068918;27;105572;-76
2023/10/23 04:29:47;;;;;;;6.80;6.10;;;;;;;6.48;100.00;96176.69;5076502;27;102730;-74
2023/10/23 04:32:14;;;;;;;6.33;5.60;;;;;;;6.41;100.00;96173.38;5072235;27;105882;-75
2023/10/23 04:34:43;;;;;;;5.63;5.07;;;;;;;6.51;100.00;96172.78;5071605;27;105487;-75
2023/10/23 04:37:09;;;;;;;7.67;6.00;;;;;;;6.61;100.00;96170.38;5072191;27;101956;-75
2023/10/23 04:39:36;;;;;;;5.77;5.27;;;;;;;6.66;100.00;96168.66;5072387;27;104853;-74
2023/10/23 04:42:04;;;;;;;5.47;4.97;;;;;;;6.66;100.00;96167.84;5073955;27;102703;-74
2023/10/23 04:44:31;;;;;;;5.90;5.40;;;;;;;6.71;100.00;96162.69;5074537;27;101776;-75
2023/10/23 04:46:59;;;;;;;6.00;5.40;;;;;;;6.72;100.00;96165.06;5074180;27;102782;-74
2023/10/23 04:49:26;;;;;;;5.50;5.00;;;;;;;6.69;100.00;96168.19;5093193;27;105621;-75
2023/10/23 04:51:55;;;;;;;6.27;5.67;;;;;;;6.76;100.00;96155.66;5072846;27;104748;-75
2023/10/23 04:54:27;;;;;;;5.80;5.30;;;;;;;6.75;100.00;96171.72;5072302;27;105412;-75
2023/10/23 04:56:54;;;;;;;6.73;5.93;;;;;;;6.72;100.00;96164.28;5090488;27;101719;-75
2023/10/23 04:59:21;;;;;;;6.20;5.60;;;;;;;6.84;100.00;96178.28;5073050;27;105025;-75
2023/10/23 05:01:50;;;;;;;6.43;5.60;;;;;;;6.87;100.00;96165.41;5073784;27;101870;-75
2023/10/23 05:04:17;;;;;;;5.93;5.43;;;;;;;6.89;100.00;96170.47;5072760;27;101949;-74
2023/10/23 05:06:44;;;;;;;6.10;5.50;;;;;;;6.89;100.00;96176.56;5072710;27;104885;-77
2023/10/23 05:09:14;;;;;;;5.73;5.23;;;;;;;6.93;100.00;96174.25;5072237;27;105703;-74
2023/10/23 05:11:41;;;;;;;6.37;5.83;;;;;;;6.88;100.00;96166.22;5076094;27;101904;-74
2023/10/23 05:14:08;;;;;;;6.70;6.00;;;;;;;6.86;100.00;96158.53;5072158;27;105290;-74
2023/10/23 05:16:36;;;;;;;6.40;5.80;;;;;;;6.94;100.00;96158.19;5074058;27;101772;-74
2023/10/23 05:19:04;;;;;;;6.63;5.97;;;;;;;6.95;100.00;96158.97;5089649;27;104801;-74
2023/10/23 05:21:31;;;;;;;5.80;5.30;;;;;;;6.86;100.00;96163.81;5071991;27;105374;-74
2023/10/23 05:24:00;;;;;;;6.50;5.90;;;;;;;6.80;100.00;96158.63;5072511;27;101955;-74
2023/10/23 05:26:28;;;;;;;6.37;5.77;;;;;;;6.79;100.00;96159.69;5089756;27;104086;-74
2023/10/23 05:28:55;;;;;;;6.10;5.50;;;;;;;6.79;100.00;96162.31;5073314;27;102705;-74
2023/10/23 05:31:22;;;;;;;6.50;5.90;;;;;;;6.82;100.00;96177.72;5073788;27;101944;-74
2023/10/23 05:33:49;;;;;;;6.03;5.53;;;;;;;6.84;100.00;96165.88;5075066;27;105497;-74
2023/10/23 05:36:16;;;;;;;5.90;5.37;;;;;;;6.84;100.00;96162.44;5072283;27;102081;-74
2023/10/23 05:38:45;;;;;;;7.13;6.33;;;;;;;6.88;100.00;96160.94;5073445;27;102527;-74
2023/10/23 05:41:12;;;;;;;6.90;6.30;;;;;;;6.94;100.00;96160.81;5071612;27;103801;-74
2023/10/23 05:43:40;;;;;;;10.40;8.90;;;;;;;6.74;100.00;96155.09;5072269;27;101801;-74
2023/10/23 05:46:07;;;;;;;8.27;7.57;;;;;;;6.66;100.00;96159.94;5088830;27;105226;-74
2023/10/23 05:48:36;;;;;;;8.43;7.43;;;;;;;6.66;100.00;96165.22;5071207;27;105249;-74
2023/10/23 05:51:06;;;;;;;20.27;11.97;;;;;;;6.69;100.00;96167.38;5073207;27;101783;-74
2023/10/23 05:53:37;;;;;;;39.10;19.77;;;;;;;6.68;100.00;96166.59;5070791;27;105029;-74
2023/10/23 05:56:05;;;;;;;29.37;16.37;;;;;;;6.73;100.00;96164.06;5073607;27;106293;-74
2023/10/23 05:58:33;;;;;;;16.20;10.87;;;;;;;6.79;100.00;96147.28;5070278;27;105161;-74
2023/10/23 06:01:06;;;;;;;12.33;8.37;;;;;;;6.86;100.00;96150.59;5070007;27;105561;-74
2023/10/23 06:03:33;;;;;;;7.10;6.50;;;;;;;6.80;100.00;96156.81;5088926;27;101818;-74
2023/10/23 06:06:00;;;;;;;6.20;5.70;;;;;;;6.87;100.00;96160.13;5071737;27;105009;-74
2023/10/23 06:08:27;;;;;;;6.60;5.80;;;;;;;7.01;100.00;96160.66;5071082;27;105524;-74
2023/10/23 06:10:54;;;;;;;7.10;6.40;;;;;;;7.09;100.00;96168.25;5071775;27;101940;-75
2023/10/23 06:13:23;;;;;;;6.73;6.13;;;;;;;7.11;100.00;96187.31;5073071;27;102759;-75
2023/10/23 06:15:52;;;;;;;6.33;5.73;;;;;;;7.16;100.00;96190.06;5071158;27;103887;-73
2023/10/23 06:18:20;;;;;;;6.90;6.20;;;;;;;7.24;100.00;96187.03;5074645;27;101856;-74
2023/10/23 06:20:57;;;;;;;6.73;5.70;;;;;;;7.39;100.00;96190.00;5070313;27;105419;-74
2023/10/23 06:23:35;;;;;;;7.37;6.60;;;;;;;7.22;100.00;96181.19;5071023;27;101916;-74
2023/10/23 06:26:09;;;;;;;7.10;6.50;;;;;;;7.29;100.00;96189.78;5071446;27;104987;-74
2023/10/23 06:28:42;;;;;;;7.00;6.30;;;;;;;7.42;100.00;96189.53;5067430;27;104825;-74
2023/10/23 06:31:14;;;;;;;6.87;6.23;;;;;;;7.50;100.00;96176.75;5067896;27;102377;-74
2023/10/23 06:33:51;;;;;;;8.23;6.20;;;;;;;7.58;100.00;96178.22;5068836;27;104394;-74
2023/10/23 06:36:34;;;;;;;6.53;5.87;;;;;;;7.59;100.00;96174.53;5056840;27;102069;-74
2023/10/23 06:39:01;;;;;;;6.90;5.97;;;;;;;7.54;100.00;96174.44;5050788;27;101814;-74
2023/10/23 06:41:34;;;;;;;26.83;14.03;;;;;;;7.54;100.00;96185.81;5053309;27;105413;-74
2023/10/23 06:44:07;;;;;;;16.27;10.33;;;;;;;7.66;100.00;96189.22;5051164;27;101952;-74
2023/10/23 06:46:37;;;;;;;11.40;8.77;;;;;;;7.68;100.00;96192.41;5050538;27;103039;-74
2023/10/23 06:49:16;;;;;;;7.80;7.00;;;;;;;7.73;100.00;96186.41;5049861;27;105084;-74
2023/10/23 06:51:45;;;;;;;9.60;6.97;;;;;;;7.84;100.00;96182.91;5064779;27;101888;-74
2023/10/23 06:54:13;;;;;;;8.90;7.30;;;;;;;7.98;100.00;96176.28;5070873;27;105204;-74
2023/10/23 06:56:45;;;;;;;7.73;6.63;;;;;;;8.04;100.00;96180.63;5070061;27;105307;-74
2023/10/23 06:59:16;;;;;;;8.47;7.67;;;;;;;8.08;100.00;96171.16;5050285;27;102124;-74
2023/10/23 07:01:43;;;;;;;8.67;7.77;;;;;;;8.03;100.00;96163.94;5054047;27;102825;-74
2023/10/23 07:04:11;;;;;;;9.30;8.27;;;;;;;8.05;100.00;96164.50;5053783;27;101915;-74
2023/10/23 07:06:38;;;;;;;10.90;9.17;;;;;;;8.06;100.00;96162.63;5070889;27;105438;-74
2023/10/23 07:09:07;;;;;;;10.73;9.13;;;;;;;8.06;100.00;96159.97;5069875;27;104350;-74
2023/10/23 07:11:41;;;;;;;9.50;8.60;;;;;;;8.09;100.00;96164.81;5072158;27;101815;-74
2023/10/23 07:14:08;;;;;;;9.77;8.83;;;;;;;8.14;100.00;96165.72;5070657;27;104850;-74
2023/10/23 07:16:34;;;;;;;9.70;7.60;;;;;;;8.21;100.00;96169.03;5066481;27;105735;-74
2023/10/23 07:19:04;;;;;;;8.57;7.77;;;;;;;8.30;100.00;96161.47;5061913;27;101863;-74
2023/10/23 07:21:33;;;;;;;8.60;7.77;;;;;;;8.42;100.00;96160.34;5061947;27;105303;-74
2023/10/23 07:24:00;;;;;;;8.77;7.97;;;;;;;8.61;100.00;96174.16;5073567;27;105007;-74
2023/10/23 07:26:27;;;;;;;9.63;8.17;;;;;;;8.93;100.00;96186.53;5070578;27;105739;-74
2023/10/23 07:28:57;;;;;;;14.17;9.43;;;;;;;9.05;100.00;96181.13;5060272;27;104496;-74
2023/10/23 07:31:24;;;;;;;9.77;8.77;;;;;;;9.12;100.00;96177.25;5070476;27;101845;-74
2023/10/23 07:33:51;;;;;;;9.80;8.80;;;;;;;9.12;100.00;96171.13;5070325;27;104920;-74
2023/10/23 07:36:18;;;;;;;10.23;9.13;;;;;;;9.37;100.00;96174.91;5069790;27;105358;-74
2023/10/23 07:38:46;;;;;;;25.60;18.93;;;;;;;9.30;100.00;96178.78;5071633;27;101785;-74
2023/10/23 07:41:14;;;;;;;22.73;15.17;;;;;;;9.52;100.00;96182.22;5069208;27;104122;-74
2023/10/23 07:43:47;;;;;;;19.90;14.90;;;;;;;9.75;100.00;96176.66;5068577;27;105626;-74
2023/10/23 07:46:16;;;;;;;13.80;11.80;;;;;;;9.81;100.00;96181.75;5072425;27;101860;-74
2023/10/23 07:48:49;;;;;;;9.87;7.47;;;;;;;9.34;100.00;96179.91;5056909;27;102732;-75
2023/10/23 07:51:22;;;;;;;8.27;5.97;;;;;;;9.12;100.00;96182.56;5070473;27;101889;-74
2023/10/23 07:53:52;;;;;;;7.10;5.73;;;;;;;9.24;100.00;96175.28;5070169;27;105291;-75
2023/10/23 07:56:23;;;;;;;5.83;5.23;;;;;;;9.50;100.00;96181.69;5053936;27;105293;-74
2023/10/23 07:58:54;;;;;;;4.63;4.23;;;;;;;9.51;100.00;96160.22;5061091;27;101728;-74
2023/10/23 08:01:27;;;;;;;4.53;4.13;;;;;;;9.56;100.00;96162.94;5062815;27;104941;-74
2023/10/23 08:03:56;;;;;;;7.30;4.73;;;;;;;9.79;100.00;96162.63;5052479;27;105225;-74
2023/10/23 08:06:30;;;;;;;5.73;5.23;;;;;;;10.12;100.00;96161.63;5071119;27;102015;-74
2023/10/23 08:09:06;;;;;;;6.47;5.97;;;;;;;10.41;100.00;96160.28;5059501;27;105383;-74
2023/10/23 08:11:33;;;;;;;6.20;5.70;;;;;;;10.49;100.00;96165.13;5052277;27;101859;-74
2023/10/23 08:14:04;;;;;;;6.80;5.60;;;;;;;10.65;100.00;96166.84;5054513;27;102864;-74
2023/10/23 08:16:34;;;;;;;6.87;5.53;;;;;;;10.78;100.00;96171.69;5052731;27;105788;-74
2023/10/23 08:19:05;;;;;;;5.40;4.90;;;;;;;10.94;100.00;96163.56;5070404;27;101943;-74
2023/10/23 08:21:38;;;;;;;6.63;5.63;;;;;;;11.08;100.00;96166.56;5073579;27;105645;-74
2023/10/23 08:24:13;;;;;;;5.60;5.10;;;;;;;11.10;100.00;96167.09;5072644;27;105754;-74
2023/10/23 08:26:40;;;;;;;5.87;4.77;;;;;;;11.01;100.00;96171.31;5070003;27;101733;-74
2023/10/23 08:29:15;;;;;;;5.53;5.03;;;;;;;11.05;100.00;96157.25;5070502;27;105560;-73
2023/10/23 08:31:42;;;;;;;5.97;5.37;;;;;;;10.96;100.00;96155.34;5076329;27;104207;-74
2023/10/23 08:34:21;;;;;;;5.40;4.90;;;;;;;11.04;100.00;96149.50;5074790;27;102559;-74
2023/10/23 08:36:59;;;;;;;6.43;5.20;;;;;;;11.13;100.00;96145.31;5072711;27;104965;-73
2023/10/23 08:39:30;;;;;;;5.90;5.40;;;;;;;11.45;100.00;96135.31;5062350;27;101993;-73
2023/10/23 08:42:02;;;;;;;5.90;5.30;;;;;;;11.63;100.00;96126.88;5073117;27;103708;-73
2023/10/23 08:44:31;;;;;;;5.77;5.23;;;;;;;11.63;100.00;96132.19;5072582;27;104019;-73
2023/10/23 08:47:03;;;;;;;7.10;5.90;;;;;;;11.31;100.00;96131.53;5073055;27;101972;-73
2023/10/23 08:49:36;;;;;;;6.27;5.77;;;;;;;11.21;100.00;96123.50;5061514;27;102653;-73
2023/10/23 08:52:09;;;;;;;6.40;5.50;;;;;;;11.38;100.00;96118.78;5072537;27;105541;-73
2023/10/23 08:54:40;;;;;;;5.53;5.03;;;;;;;11.62;100.00;96114.63;5076356;27;101726;-73
2023/10/23 08:57:08;;;;;;;5.00;4.57;;;;;;;11.66;100.00;96121.03;5072356;27;105433;-73
2023/10/23 08:59:35;;;;;;;5.37;4.87;;;;;;;11.75;100.00;96116.78;5052386;27;101985;-73
2023/10/23 09:02:03;;;;;;;6.23;5.00;;;;;;;11.63;100.00;96121.53;5052480;27;105123;-73
2023/10/23 09:04:30;;;;;;;5.00;4.60;;;;;;;11.77;100.00;96130.66;5052106;27;104355;-73
2023/10/23 09:06:59;;;;;;;4.30;4.00;;;;;;;11.83;100.00;96121.59;5052308;27;102034;-73
2023/10/23 09:09:28;;;;;;;4.50;4.13;;;;;;;12.19;100.00;96104.56;5071307;27;105185;-74
2023/10/23 09:12:29;;;;;;;4.50;4.10;;;;;;;12.46;100.00;96102.41;5072098;27;105886;-75
2023/10/23 09:15:17;;;;;;;4.20;3.90;;;;;;;12.61;100.00;96094.38;5052297;27;102425;-75
2023/10/23 09:17:45;;;;;;;5.23;3.77;;;;;;;12.74;100.00;96083.13;5056220;27;105044;-74
2023/10/23 09:20:22;;;;;;;3.87;3.57;;;;;;;12.77;100.00;96086.09;5072639;27;101911;-73
2023/10/23 09:22:52;;;;;;;3.57;3.30;;;;;;;12.91;100.00;96087.09;5072691;27;105493;-73
2023/10/23 09:25:22;;;;;;;3.40;3.03;;;;;;;13.24;100.00;96073.13;5071901;27;105434;-74
2023/10/23 09:27:53;;;;;;;3.23;2.73;;;;;;;13.37;100.00;96061.03;5067706;27;101858;-74
2023/10/23 09:30:22;;;;;;;3.10;2.90;;;;;;;13.63;100.00;96054.47;5063325;27;103063;-75
2023/10/23 09:32:53;;;;;;;2.73;2.53;;;;;;;13.80;100.00;96053.00;5071633;27;103745;-74
2023/10/23 09:35:20;;;;;;;2.80;2.60;;;;;;;13.87;100.00;96047.34;5056182;27;101892;-75
2023/10/23 09:37:47;;;;;;;2.80;2.60;;;;;;;14.19;100.00;96051.16;5058705;27;105260;-75
2023/10/23 09:40:16;;;;;;;2.00;1.80;;;;;;;14.35;100.00;96049.13;5072222;27;101896;-74
2023/10/23 09:42:43;;;;;;;1.70;1.60;;;;;;;14.37;100.00;96050.44;5073700;27;102889;-74
2023/10/23 09:45:12;;;;;;;1.83;1.70;;;;;;;14.19;100.00;96042.28;5071478;27;105331;-74
2023/10/23 09:47:41;;;;;;;5.47;2.27;;;;;;;13.86;100.00;96040.41;5071996;27;101877;-74
2023/10/23 09:50:08;;;;;;;2.47;2.27;;;;;;;13.94;100.00;96042.47;5073408;27;102508;-74
2023/10/23 09:52:37;;;;;;;2.40;2.20;;;;;;;14.14;100.00;96056.50;5071407;27;104377;-74
2023/10/23 09:55:06;;;;;;;2.50;1.73;;;;;;;14.36;100.00;96045.38;5071882;27;101898;-74
2023/10/23 09:57:36;;;;;;;2.00;1.80;;;;;;;14.66;100.00;96045.84;5071691;27;104874;-74
2023/10/23 10:00:13;;;;;;;2.83;1.60;;;;;;;14.84;100.00;96042.47;5074783;27;105331;-74
2023/10/23 10:02:46;;;;;;;1.77;1.60;;;;;;;14.87;100.00;96033.06;5071722;27;105286;-75
2023/10/23 10:05:22;;;;;;;1.70;1.60;;;;;;;14.86;100.00;96039.47;5071120;27;103992;-74
2023/10/23 10:07:55;;;;;;;1.67;1.57;;;;;;;15.08;100.00;96037.88;5071733;27;101841;-73
2023/10/23 10:10:23;;;;;;;1.90;1.80;;;;;;;14.59;100.00;96033.88;5071976;27;105017;-74
2023/10/23 10:12:51;;;;;;;1.83;1.53;;;;;;;14.87;100.00;96041.88;5071056;27;105322;-74
2023/10/23 10:15:18;;;;;;;2.10;1.90;;;;;;;14.58;100.00;96034.97;5068053;27;102037;-74
2023/10/23 10:17:48;;;;;;;1.80;1.70;;;;;;;14.86;100.00;96031.44;5053905;27;103702;-74
2023/10/23 10:20:17;;;;;;;2.10;1.93;;;;;;;14.98;100.00;96023.84;5071251;27;104994;-74
2023/10/23 10:22:45;;;;;;;1.60;1.50;;;;;;;14.79;100.00;96018.44;5076652;27;101859;-74
2023/10/23 10:25:13;;;;;;;1.60;1.50;;;;;;;14.93;100.00;96023.91;5070285;27;104251;-74
2023/10/23 10:27:40;;;;;;;2.17;1.43;;;;;;;15.14;100.00;96020.66;5070670;27;102118;-74
2023/10/23 10:30:41;;;;;;;1.67;1.50;;;;;;;15.33;100.00;96020.72;5071315;27;104500;-74
2023/10/23 10:33:14;;;;;;;1.67;1.57;;;;;;;15.72;100.00;96010.50;5070965;27;103786;-75
2023/10/23 10:35:41;;;;;;;1.93;1.83;;;;;;;15.95;100.00;96002.34;5052139;27;103221;-74
2023/10/23 10:38:12;;;;;;;2.50;1.70;;;;;;;16.09;100.00;96008.53;5055922;27;105608;-74
2023/10/23 10:41:00;;;;;;;1.43;1.37;;;;;;;15.96;100.00;96009.31;5070712;27;105985;-74
2023/10/23 10:43:31;;;;;;;1.30;1.20;;;;;;;16.19;100.00;95996.88;5071342;27;101806;-74
2023/10/23 10:45:58;;;;;;;2.83;2.30;;;;;;;16.48;100.00;95992.88;5073560;27;104307;-74
2023/10/23 10:48:42;;;;;;;3.27;1.83;;;;;;;16.14;100.00;95989.69;5063524;27;102034;-75
2023/10/23 10:51:10;;;;;;;1.90;1.70;;;;;;;16.05;100.00;95998.69;5052313;27;102556;-74
2023/10/23 10:53:40;;;;;;;1.70;1.60;;;;;;;15.70;100.00;96002.75;5049881;27;105152;-74
2023/10/23 10:56:09;;;;;;;1.67;1.57;;;;;;;16.12;100.00;95993.75;5051677;27;101879;-74
2023/10/23 10:58:37;;;;;;;1.43;1.23;;;;;;;15.42;100.00;95989.53;5058421;27;105399;-74
2023/10/23 11:01:04;;;;;;;1.70;1.60;;;;;;;15.88;100.00;95982.38;5070212;27;105754;-74
2023/10/23 11:03:34;;;;;;;1.60;1.50;;;;;;;16.30;100.00;95985.66;5070750;27;102074;-74
2023/10/23 11:06:01;;;;;;;1.30;1.30;;;;;;;16.53;100.00;95976.69;5070606;27;105318;-74
2023/10/23 11:08:28;;;;;;;1.40;1.30;;;;;;;16.80;100.00;95962.47;5073047;27;102095;-74
2023/10/23 11:10:56;;;;;;;1.10;1.10;;;;;;;17.05;100.00;95954.66;5070959;27;105156;-74
2023/10/23 11:13:23;;;;;;;1.77;1.40;;;;;;;17.16;100.00;95936.44;5070321;27;105914;-73
2023/10/23 11:15:55;;;;;;;1.83;1.30;;;;;;;17.29;100.00;95933.72;5070611;27;101935;-73
2023/10/23 11:18:22;;;;;;;1.30;1.13;;;;;;;17.55;100.00;95921.31;5064510;27;103673;-74
2023/10/23 11:20:50;;;;;;;1.10;1.03;;;;;;;17.98;100.00;95911.63;5049714;27;106165;-74
2023/10/23 11:23:21;;;;;;;7.97;3.47;;;;;;;17.92;100.00;95912.84;5053462;27;101994;-74
2023/10/23 11:25:49;;;;;;;1.07;0.93;;;;;;;17.94;100.00;95912.56;5070698;27;105179;-74
2023/10/23 11:28:17;;;;;;;0.90;0.80;;;;;;;17.90;100.00;95907.00;5074285;27;102962;-74
2023/10/23 11:30:46;;;;;;;1.17;1.03;;;;;;;17.90;100.00;95903.50;5070196;27;105081;-74